Time;durP1;ratioP1;P1;durP2;ratioP2;P2;SDS_P1;SDS_P2;PMS_P1;PMS_P2;Temp;Humidity;BMP_temperature;BMP_pressure;BME280_temperature;BME280_humidity;BME280_pressure;Samples;Min_cycle;Max_cycle;Signal;HPM_P1;HPM_P2
2023/12/20 00:00:57;;;;;;;;;;;19.40;99.90;;;;;;4970611;28;19910;-70
2023/12/20 00:03:24;;;;;;;;;;;19.40;99.90;;;;;;4970597;28;19915;-69
2023/12/20 00:05:50;;;;;;;;;;;19.40;99.90;;;;;;4970367;28;20290;-70
2023/12/20 00:08:17;;;;;;;;;;;19.40;99.90;;;;;;4970110;28;19915;-70
2023/12/20 00:10:44;;;;;;;;;;;19.50;99.90;;;;;;4970188;28;19914;-73
2023/12/20 00:13:11;;;;;;;;;;;19.60;99.90;;;;;;4970060;28;19918;-71
2023/12/20 00:15:38;;;;;;;;;;;19.60;99.90;;;;;;4951151;28;20415;-71
2023/12/20 00:18:05;;;;;;;;;;;19.70;99.90;;;;;;4965480;28;19921;-71
2023/12/20 00:20:31;;;;;;;;;;;19.80;99.90;;;;;;4970118;28;19918;-70
2023/12/20 00:22:58;;;;;;;;;;;19.80;99.90;;;;;;4969080;28;20395;-69
2023/12/20 00:25:25;;;;;;;;;;;19.80;99.90;;;;;;4970293;28;19915;-70
2023/12/20 00:27:52;;;;;;;;;;;19.80;99.90;;;;;;4969697;28;20005;-71
2023/12/20 00:30:19;;;;;;;;;;;19.80;99.90;;;;;;4967872;28;19925;-74
2023/12/20 00:32:48;;;;;;;;;;;20.00;99.90;;;;;;4969992;28;19967;-69
2023/12/20 00:35:15;;;;;;;;;;;20.10;99.90;;;;;;4970670;28;19997;-69
2023/12/20 00:37:43;;;;;;;;;;;20.00;99.90;;;;;;4970283;28;19914;-68
2023/12/20 00:40:10;;;;;;;;;;;20.00;99.90;;;;;;4965579;28;20000;-69
2023/12/20 00:42:37;;;;;;;;;;;20.00;99.90;;;;;;4970011;28;19910;-70
2023/12/20 00:45:04;;;;;;;;;;;20.00;99.90;;;;;;4970345;28;20283;-70
2023/12/20 00:47:31;;;;;;;;;;;20.00;99.90;;;;;;4969389;28;19911;-71
2023/12/20 00:49:58;;;;;;;;;;;19.90;99.90;;;;;;4970184;28;20400;-70
2023/12/20 00:52:25;;;;;;;;;;;19.70;99.90;;;;;;4970103;28;19919;-71
2023/12/20 00:54:52;;;;;;;;;;;19.60;99.90;;;;;;4970307;28;19918;-70
2023/12/20 00:57:20;;;;;;;;;;;19.50;99.90;;;;;;4964385;28;20286;-69
2023/12/20 00:59:46;;;;;;;;;;;19.50;99.90;;;;;;4965491;28;19914;-72
2023/12/20 01:02:13;;;;;;;;;;;19.50;99.90;;;;;;4970118;28;19973;-72
2023/12/20 01:04:39;;;;;;;;;;;19.30;99.90;;;;;;4970008;28;19922;-70
2023/12/20 01:07:06;;;;;;;;;;;19.40;99.90;;;;;;4969883;28;19964;-69
2023/12/20 01:09:32;;;;;;;;;;;19.40;99.90;;;;;;4968850;28;19960;-69
2023/12/20 01:11:59;;;;;;;;;;;19.30;99.90;;;;;;4969870;28;19919;-72
2023/12/20 01:14:26;;;;;;;;;;;19.20;99.90;;;;;;4969822;28;19940;-71
2023/12/20 01:16:52;;;;;;;;;;;19.20;99.90;;;;;;4969633;28;19917;-70
2023/12/20 01:19:19;;;;;;;;;;;19.20;99.90;;;;;;4963361;28;20004;-71
2023/12/20 01:21:46;;;;;;;;;;;19.30;99.90;;;;;;4973561;28;19922;-70
2023/12/20 01:24:12;;;;;;;;;;;19.30;99.90;;;;;;4964055;28;20325;-71
2023/12/20 01:26:39;;;;;;;;;;;19.30;99.90;;;;;;4969870;28;19917;-71
2023/12/20 01:29:06;;;;;;;;;;;19.20;99.90;;;;;;4968460;28;20295;-71
2023/12/20 01:31:32;;;;;;;;;;;19.30;99.90;;;;;;4969881;28;19925;-71
2023/12/20 01:33:59;;;;;;;;;;;19.30;99.90;;;;;;4970104;28;19922;-70
2023/12/20 01:36:26;;;;;;;;;;;19.30;99.90;;;;;;4960440;28;20084;-70
2023/12/20 01:38:53;;;;;;;;;;;19.30;99.90;;;;;;4962072;28;20374;-70
2023/12/20 01:41:20;;;;;;;;;;;19.20;99.90;;;;;;4962864;28;19987;-70
2023/12/20 01:43:47;;;;;;;;;;;19.20;99.90;;;;;;4962316;28;19914;-70
2023/12/20 01:46:13;;;;;;;;;;;19.20;99.90;;;;;;4972038;28;19919;-71
2023/12/20 01:48:40;;;;;;;;;;;19.30;99.90;;;;;;4966369;28;19924;-73
2023/12/20 01:51:07;;;;;;;;;;;19.20;99.90;;;;;;4968224;28;19914;-70
2023/12/20 01:53:34;;;;;;;;;;;19.30;99.90;;;;;;4972101;28;19922;-70
2023/12/20 01:56:01;;;;;;;;;;;19.20;99.90;;;;;;4972085;28;19914;-70
2023/12/20 01:58:28;;;;;;;;;;;19.30;99.90;;;;;;4971374;28;19917;-70
2023/12/20 02:00:55;;;;;;;;;;;19.30;99.90;;;;;;4972912;28;20028;-70
2023/12/20 02:03:22;;;;;;;;;;;19.20;99.90;;;;;;4971374;28;19968;-69
2023/12/20 02:05:48;;;;;;;;;;;19.20;99.90;;;;;;4970712;28;19934;-72
2023/12/20 02:08:15;;;;;;;;;;;19.10;99.90;;;;;;4971898;28;19917;-70
2023/12/20 02:10:42;;;;;;;;;;;19.20;99.90;;;;;;4970518;28;19969;-72
2023/12/20 02:13:08;;;;;;;;;;;19.20;99.90;;;;;;4961990;28;20225;-71
2023/12/20 02:15:37;;;;;;;;;;;19.20;99.90;;;;;;4963160;28;20308;-71
2023/12/20 02:18:04;;;;;;;;;;;19.20;99.90;;;;;;4963759;28;19972;-69
2023/12/20 02:20:30;;;;;;;;;;;19.10;99.90;;;;;;4961655;28;20394;-70
2023/12/20 02:22:57;;;;;;;;;;;19.10;99.90;;;;;;4960630;28;19922;-72
2023/12/20 02:25:24;;;;;;;;;;;19.10;99.90;;;;;;4958570;28;19925;-72
2023/12/20 02:27:51;;;;;;;;;;;19.10;99.90;;;;;;4962930;28;19911;-71
2023/12/20 02:30:18;;;;;;;;;;;19.10;99.90;;;;;;4963065;28;19967;-69
2023/12/20 02:32:44;;;;;;;;;;;19.10;99.90;;;;;;4959296;28;19925;-69
2023/12/20 02:35:11;;;;;;;;;;;19.00;99.90;;;;;;4961727;28;19914;-71
2023/12/20 02:37:38;;;;;;;;;;;19.10;99.90;;;;;;4964745;28;19950;-71
2023/12/20 02:40:04;;;;;;;;;;;19.10;99.90;;;;;;4963150;28;19925;-71
2023/12/20 02:42:31;;;;;;;;;;;19.10;99.90;;;;;;4963235;28;19910;-69
2023/12/20 02:44:58;;;;;;;;;;;19.10;99.90;;;;;;4963195;28;20306;-70
2023/12/20 02:47:24;;;;;;;;;;;19.00;99.90;;;;;;4963635;28;19914;-70
2023/12/20 02:49:52;;;;;;;;;;;19.10;99.90;;;;;;4965228;28;19987;-70
2023/12/20 02:52:19;;;;;;;;;;;19.10;99.90;;;;;;4966569;28;20291;-70
2023/12/20 02:54:46;;;;;;;;;;;19.00;99.90;;;;;;4972950;28;19914;-69
2023/12/20 02:57:12;;;;;;;;;;;19.00;99.90;;;;;;4973914;28;19914;-70
2023/12/20 02:59:39;;;;;;;;;;;19.00;99.90;;;;;;4964979;28;19915;-72
2023/12/20 03:02:05;;;;;;;;;;;18.90;99.90;;;;;;4969265;28;19914;-70
2023/12/20 03:04:32;;;;;;;;;;;19.00;99.90;;;;;;4971195;28;19964;-72
2023/12/20 03:06:59;;;;;;;;;;;19.00;99.90;;;;;;4970501;28;19914;-72
2023/12/20 03:09:25;;;;;;;;;;;19.00;99.90;;;;;;4964050;28;19941;-72
2023/12/20 03:11:52;;;;;;;;;;;18.90;99.90;;;;;;4958636;28;19970;-72
2023/12/20 03:14:18;;;;;;;;;;;18.90;99.90;;;;;;4956254;28;20316;-73
2023/12/20 03:16:51;;;;;;;;;;;18.90;99.90;;;;;;4990789;28;19921;-72
2023/12/20 03:19:19;;;;;;;;;;;19.00;99.90;;;;;;4986940;28;19916;-74
2023/12/20 03:21:45;;;;;;;;;;;18.90;99.90;;;;;;4971191;28;19968;-77
2023/12/20 03:24:12;;;;;;;;;;;19.00;99.90;;;;;;4959560;28;19919;-76
2023/12/20 03:26:39;;;;;;;;;;;19.00;99.90;;;;;;4990878;28;19910;-73
2023/12/20 03:29:05;;;;;;;;;;;18.90;99.90;;;;;;4988554;28;19910;-74
2023/12/20 03:31:32;;;;;;;;;;;18.80;99.90;;;;;;4952181;28;19923;-75
2023/12/20 03:33:59;;;;;;;;;;;18.90;99.90;;;;;;4952213;28;20382;-73
2023/12/20 03:36:25;;;;;;;;;;;18.80;99.90;;;;;;4970243;28;20000;-73
2023/12/20 03:38:52;;;;;;;;;;;18.90;99.90;;;;;;4971084;28;19921;-73
2023/12/20 03:41:18;;;;;;;;;;;19.00;99.90;;;;;;4970681;28;19914;-76
2023/12/20 03:43:45;;;;;;;;;;;19.00;99.90;;;;;;4971025;28;20249;-73
2023/12/20 03:46:12;;;;;;;;;;;18.90;99.90;;;;;;4971021;28;19914;-72
2023/12/20 03:48:38;;;;;;;;;;;18.90;99.90;;;;;;4970614;28;20386;-73
2023/12/20 03:51:05;;;;;;;;;;;18.90;99.90;;;;;;4981054;28;19925;-74
2023/12/20 03:53:32;;;;;;;;;;;19.00;99.90;;;;;;4964246;28;20095;-73
2023/12/20 03:55:58;;;;;;;;;;;18.90;99.90;;;;;;4970935;28;20004;-75
2023/12/20 03:58:25;;;;;;;;;;;19.00;99.90;;;;;;4973816;28;19914;-76
2023/12/20 04:00:52;;;;;;;;;;;19.00;99.90;;;;;;4972204;28;19916;-72
2023/12/20 04:03:18;;;;;;;;;;;19.00;99.90;;;;;;4969348;28;19910;-72
2023/12/20 04:05:45;;;;;;;;;;;18.90;99.90;;;;;;4960966;28;19914;-75
2023/12/20 04:08:12;;;;;;;;;;;18.90;99.90;;;;;;4969451;28;19918;-74
2023/12/20 04:10:39;;;;;;;;;;;19.00;99.90;;;;;;4969181;28;19916;-73
2023/12/20 04:13:05;;;;;;;;;;;18.90;99.90;;;;;;4961059;28;19922;-72
2023/12/20 04:15:32;;;;;;;;;;;18.90;99.90;;;;;;4958605;28;19914;-71
2023/12/20 04:18:00;;;;;;;;;;;18.80;99.90;;;;;;4962210;28;19919;-74
2023/12/20 04:20:27;;;;;;;;;;;18.70;99.90;;;;;;4959237;28;19961;-74
2023/12/20 04:22:53;;;;;;;;;;;18.70;99.90;;;;;;4960017;28;19922;-72
2023/12/20 04:25:20;;;;;;;;;;;18.70;99.90;;;;;;4960049;28;19910;-72
2023/12/20 04:27:47;;;;;;;;;;;18.70;99.90;;;;;;4962211;28;19930;-72
2023/12/20 04:30:14;;;;;;;;;;;18.80;99.90;;;;;;4958993;28;19921;-71
2023/12/20 04:32:40;;;;;;;;;;;18.70;99.90;;;;;;4965371;28;20363;-69
2023/12/20 04:35:08;;;;;;;;;;;18.60;99.90;;;;;;4963854;28;19921;-71
2023/12/20 04:37:35;;;;;;;;;;;18.60;99.90;;;;;;4963048;28;19968;-70
2023/12/20 04:40:01;;;;;;;;;;;18.60;99.90;;;;;;4959378;28;19946;-70
2023/12/20 04:42:28;;;;;;;;;;;18.60;99.90;;;;;;4962541;28;19918;-72
2023/12/20 04:44:58;;;;;;;;;;;18.70;99.90;;;;;;4958640;28;20416;-70
2023/12/20 04:47:24;;;;;;;;;;;18.80;99.90;;;;;;4964764;28;20018;-68
2023/12/20 04:49:51;;;;;;;;;;;18.80;99.90;;;;;;4975092;28;19922;-70
2023/12/20 04:52:18;;;;;;;;;;;18.80;99.90;;;;;;4965166;28;19929;-69
2023/12/20 04:54:45;;;;;;;;;;;18.90;99.90;;;;;;4963728;28;19946;-71
2023/12/20 04:57:11;;;;;;;;;;;18.90;99.90;;;;;;4963963;28;20006;-68
2023/12/20 04:59:38;;;;;;;;;;;18.90;99.90;;;;;;4960620;28;19946;-71
2023/12/20 05:02:05;;;;;;;;;;;18.90;99.90;;;;;;4962645;28;19922;-70
2023/12/20 05:04:32;;;;;;;;;;;18.80;99.90;;;;;;4958796;28;20359;-70
2023/12/20 05:06:58;;;;;;;;;;;18.80;99.90;;;;;;4962354;28;20414;-70
2023/12/20 05:09:25;;;;;;;;;;;18.80;99.90;;;;;;4957773;28;19919;-70
2023/12/20 05:11:52;;;;;;;;;;;18.80;99.90;;;;;;4962167;28;19926;-69
2023/12/20 05:14:18;;;;;;;;;;;18.80;99.90;;;;;;4961114;28;19918;-68
2023/12/20 05:16:45;;;;;;;;;;;18.70;99.90;;;;;;4965772;28;19918;-69
2023/12/20 05:19:11;;;;;;;;;;;18.70;99.90;;;;;;4965862;28;19971;-70
2023/12/20 05:21:38;;;;;;;;;;;18.60;99.90;;;;;;4965761;28;19926;-70
2023/12/20 05:24:05;;;;;;;;;;;18.60;99.90;;;;;;4965727;28;19910;-69
2023/12/20 05:26:32;;;;;;;;;;;18.50;99.90;;;;;;4962894;28;19998;-71
2023/12/20 05:28:58;;;;;;;;;;;18.40;99.90;;;;;;4962120;28;19914;-69
2023/12/20 05:31:25;;;;;;;;;;;18.40;99.90;;;;;;4969302;28;19918;-69
2023/12/20 05:33:54;;;;;;;;;;;18.40;99.90;;;;;;4972120;28;20444;-70
2023/12/20 05:36:21;;;;;;;;;;;18.40;99.90;;;;;;4964810;28;19933;-71
2023/12/20 05:38:47;;;;;;;;;;;18.40;99.90;;;;;;4961573;28;19915;-70
2023/12/20 05:41:14;;;;;;;;;;;18.50;99.90;;;;;;4963192;28;19914;-69
2023/12/20 05:43:41;;;;;;;;;;;18.50;99.90;;;;;;4963082;28;19919;-71
2023/12/20 05:46:07;;;;;;;;;;;18.60;99.90;;;;;;4963436;28;19918;-71
2023/12/20 05:48:34;;;;;;;;;;;18.60;99.90;;;;;;4962383;28;19929;-72
2023/12/20 05:51:00;;;;;;;;;;;18.80;99.90;;;;;;4967791;28;20361;-71
2023/12/20 05:53:27;;;;;;;;;;;18.70;99.90;;;;;;4963277;28;19918;-74
2023/12/20 05:55:54;;;;;;;;;;;18.70;99.90;;;;;;4961093;28;19922;-73
2023/12/20 05:58:21;;;;;;;;;;;18.70;99.90;;;;;;4966078;28;20009;-70
2023/12/20 06:00:48;;;;;;;;;;;18.60;99.90;;;;;;4967013;28;20006;-72
2023/12/20 06:03:15;;;;;;;;;;;18.60;99.90;;;;;;4972766;28;19918;-71
2023/12/20 06:05:42;;;;;;;;;;;18.60;99.90;;;;;;4964633;28;19993;-71
2023/12/20 06:08:08;;;;;;;;;;;18.60;99.90;;;;;;4957854;28;20375;-71
2023/12/20 06:10:35;;;;;;;;;;;18.40;99.90;;;;;;4982995;28;19961;-71
2023/12/20 06:13:03;;;;;;;;;;;18.40;99.90;;;;;;4958156;28;19938;-72
2023/12/20 06:15:29;;;;;;;;;;;18.30;99.90;;;;;;4961070;28;19918;-73
2023/12/20 06:17:56;;;;;;;;;;;18.50;99.90;;;;;;4966398;28;19914;-70
2023/12/20 06:20:22;;;;;;;;;;;18.50;99.90;;;;;;4964929;28;19914;-70
2023/12/20 06:22:49;;;;;;;;;;;18.50;99.90;;;;;;4964457;28;19922;-71
2023/12/20 06:25:16;;;;;;;;;;;18.50;99.90;;;;;;4962084;28;19915;-69
2023/12/20 06:27:43;;;;;;;;;;;18.40;99.90;;;;;;4967696;28;19921;-70
2023/12/20 06:30:10;;;;;;;;;;;18.30;99.90;;;;;;4959480;28;19914;-69
2023/12/20 06:32:37;;;;;;;;;;;18.30;99.90;;;;;;4962247;28;20398;-70
2023/12/20 06:35:04;;;;;;;;;;;18.30;99.90;;;;;;4961852;28;20367;-69
2023/12/20 06:37:31;;;;;;;;;;;18.30;99.90;;;;;;4955137;28;19954;-70
2023/12/20 06:39:58;;;;;;;;;;;18.20;99.90;;;;;;4956402;28;19981;-71
2023/12/20 06:42:24;;;;;;;;;;;18.20;99.90;;;;;;4966405;28;20358;-71
2023/12/20 06:44:51;;;;;;;;;;;18.20;99.90;;;;;;4967569;28;19922;-70
2023/12/20 06:47:18;;;;;;;;;;;18.30;99.90;;;;;;4966041;28;20446;-71
2023/12/20 06:49:44;;;;;;;;;;;18.20;99.90;;;;;;4968542;28;20287;-72
2023/12/20 06:52:11;;;;;;;;;;;18.20;99.90;;;;;;4967600;28;19926;-73
2023/12/20 06:54:37;;;;;;;;;;;18.20;99.90;;;;;;4968317;28;19922;-70
2023/12/20 06:57:04;;;;;;;;;;;18.30;99.90;;;;;;4966621;28;19921;-71
2023/12/20 06:59:31;;;;;;;;;;;18.20;99.90;;;;;;4958594;28;19922;-71
2023/12/20 07:01:57;;;;;;;;;;;18.20;99.90;;;;;;4957319;28;19914;-71
2023/12/20 07:04:24;;;;;;;;;;;18.20;99.90;;;;;;4963451;28;19922;-73
2023/12/20 07:06:57;;;;;;;;;;;18.10;99.90;;;;;;4963172;28;19918;-74
2023/12/20 07:09:23;;;;;;;;;;;18.00;99.90;;;;;;4962290;28;19911;-75
2023/12/20 07:11:50;;;;;;;;;;;18.00;99.90;;;;;;4959456;28;20007;-72
2023/12/20 07:14:17;;;;;;;;;;;18.00;99.90;;;;;;4967542;28;20011;-72
2023/12/20 07:16:43;;;;;;;;;;;18.00;99.90;;;;;;4957812;28;19911;-69
2023/12/20 07:19:10;;;;;;;;;;;17.90;99.90;;;;;;4961833;28;19917;-71
2023/12/20 07:21:37;;;;;;;;;;;17.90;99.90;;;;;;4959972;28;19915;-70
2023/12/20 07:24:03;;;;;;;;;;;17.80;99.90;;;;;;4969477;28;20331;-69
2023/12/20 07:26:30;;;;;;;;;;;17.80;99.90;;;;;;4964012;28;19925;-69
2023/12/20 07:28:58;;;;;;;;;;;17.80;99.90;;;;;;4974107;28;20322;-72
2023/12/20 07:31:25;;;;;;;;;;;17.90;99.90;;;;;;4966444;28;20013;-72
2023/12/20 07:33:51;;;;;;;;;;;17.80;99.90;;;;;;4974621;28;20007;-72
2023/12/20 07:36:21;;;;;;;;;;;17.80;99.90;;;;;;4960598;28;20428;-68
2023/12/20 07:38:48;;;;;;;;;;;17.90;99.90;;;;;;4970838;28;19914;-71
2023/12/20 07:41:15;;;;;;;;;;;17.90;99.90;;;;;;4968896;28;19961;-71
2023/12/20 07:43:42;;;;;;;;;;;17.90;99.90;;;;;;4970363;28;19919;-70
2023/12/20 07:46:09;;;;;;;;;;;18.00;99.90;;;;;;4966291;28;19915;-75
2023/12/20 07:48:36;;;;;;;;;;;18.00;99.90;;;;;;4971118;28;19960;-75
2023/12/20 07:51:03;;;;;;;;;;;18.00;99.90;;;;;;4971152;28;19918;-70
2023/12/20 07:53:31;;;;;;;;;;;18.00;99.90;;;;;;4971016;28;20347;-71
2023/12/20 07:55:57;;;;;;;;;;;18.00;99.90;;;;;;4965800;28;19937;-67
2023/12/20 07:58:24;;;;;;;;;;;18.00;99.90;;;;;;4970207;28;19916;-68
2023/12/20 08:00:51;;;;;;;;;;;18.00;99.90;;;;;;4969699;28;19920;-72
2023/12/20 08:03:17;;;;;;;;;;;17.90;99.90;;;;;;4970663;28;19914;-70
2023/12/20 08:05:44;;;;;;;;;;;17.90;99.90;;;;;;4971051;28;20031;-70
2023/12/20 08:08:10;;;;;;;;;;;17.90;99.90;;;;;;4970638;28;19955;-73
2023/12/20 08:10:37;;;;;;;;;;;17.90;99.90;;;;;;4973121;28;19914;-69
2023/12/20 08:13:04;;;;;;;;;;;18.00;99.90;;;;;;4969973;28;20425;-69
2023/12/20 08:15:30;;;;;;;;;;;18.00;99.90;;;;;;4970243;28;20027;-71
2023/12/20 08:17:57;;;;;;;;;;;18.00;99.90;;;;;;4966772;28;19917;-69
2023/12/20 08:20:24;;;;;;;;;;;17.90;99.90;;;;;;4970103;28;20325;-70
2023/12/20 08:22:50;;;;;;;;;;;18.00;99.90;;;;;;4970209;28;19922;-67
2023/12/20 08:25:17;;;;;;;;;;;17.90;99.90;;;;;;4969314;28;19914;-70
2023/12/20 08:27:44;;;;;;;;;;;17.90;99.90;;;;;;4968815;28;20263;-69
2023/12/20 08:30:10;;;;;;;;;;;17.90;99.90;;;;;;4968785;28;19918;-68
2023/12/20 08:32:37;;;;;;;;;;;17.90;99.90;;;;;;4969841;28;19966;-70
2023/12/20 08:35:04;;;;;;;;;;;17.90;99.90;;;;;;4970042;28;19910;-70
2023/12/20 08:37:31;;;;;;;;;;;17.90;99.90;;;;;;4990875;28;19912;-69
2023/12/20 08:39:58;;;;;;;;;;;17.90;99.90;;;;;;5038920;28;19914;-72
2023/12/20 08:42:30;;;;;;;;;;;17.90;99.90;;;;;;4950453;28;19911;-69
2023/12/20 08:44:58;;;;;;;;;;;17.90;99.90;;;;;;4957414;28;19953;-68
2023/12/20 08:47:25;;;;;;;;;;;18.00;99.90;;;;;;4969961;28;20005;-69
2023/12/20 08:49:56;;;;;;;;;;;17.90;99.90;;;;;;4965969;28;19919;-69
2023/12/20 08:52:27;;;;;;;;;;;17.90;99.90;;;;;;4954164;28;19976;-69
2023/12/20 08:54:53;;;;;;;;;;;17.80;99.90;;;;;;4952236;28;19969;-69
2023/12/20 08:57:21;;;;;;;;;;;17.90;99.90;;;;;;4964667;28;19914;-71
2023/12/20 08:59:48;;;;;;;;;;;17.90;99.90;;;;;;4969584;28;19922;-69
2023/12/20 09:02:15;;;;;;;;;;;17.90;99.90;;;;;;4952867;28;19914;-70
2023/12/20 09:04:42;;;;;;;;;;;17.90;99.90;;;;;;4971523;28;19917;-72
2023/12/20 09:07:30;;;;;;;;;;;17.90;99.90;;;;;;4972114;28;19945;-69
2023/12/20 09:09:57;;;;;;;;;;;17.90;99.90;;;;;;4972232;28;20348;-71
2023/12/20 09:12:24;;;;;;;;;;;17.80;99.90;;;;;;4971651;28;19944;-68
2023/12/20 09:14:51;;;;;;;;;;;17.90;99.90;;;;;;4973072;28;19910;-70
2023/12/20 09:17:19;;;;;;;;;;;17.90;99.90;;;;;;4972652;28;19953;-70
2023/12/20 09:19:46;;;;;;;;;;;17.80;99.90;;;;;;4966932;28;19910;-71
2023/12/20 09:22:13;;;;;;;;;;;17.80;99.90;;;;;;4952008;28;20562;-74
2023/12/20 09:24:40;;;;;;;;;;;17.70;99.90;;;;;;4954202;28;19917;-75
2023/12/20 09:27:06;;;;;;;;;;;17.80;99.90;;;;;;4963492;28;19995;-77
2023/12/20 09:29:33;;;;;;;;;;;17.80;99.90;;;;;;4973184;28;19944;-69
2023/12/20 09:32:00;;;;;;;;;;;17.90;99.90;;;;;;4959988;28;19925;-71
2023/12/20 09:34:26;;;;;;;;;;;17.90;99.90;;;;;;4957551;28;19914;-74
2023/12/20 09:36:53;;;;;;;;;;;18.00;99.90;;;;;;4971170;28;19910;-74
2023/12/20 09:39:23;;;;;;;;;;;18.00;99.90;;;;;;4969250;28;20287;-71
2023/12/20 09:42:04;;;;;;;;;;;18.00;99.90;;;;;;4954947;28;19933;-73
2023/12/20 09:44:31;;;;;;;;;;;18.00;99.90;;;;;;4952766;28;20012;-74
2023/12/20 09:46:58;;;;;;;;;;;17.90;99.90;;;;;;4973470;28;19950;-72
2023/12/20 09:49:25;;;;;;;;;;;18.00;99.90;;;;;;4972528;28;19921;-73
2023/12/20 09:51:53;;;;;;;;;;;18.00;99.90;;;;;;4970080;28;19960;-69
2023/12/20 09:54:21;;;;;;;;;;;17.90;99.90;;;;;;4952512;28;20072;-74
2023/12/20 09:56:49;;;;;;;;;;;17.90;99.90;;;;;;4953612;28;19950;-71
2023/12/20 09:59:18;;;;;;;;;;;17.90;99.90;;;;;;4953915;28;19910;-71
2023/12/20 10:01:46;;;;;;;;;;;17.80;99.90;;;;;;4954426;28;20299;-73
2023/12/20 10:04:14;;;;;;;;;;;17.90;99.90;;;;;;4953823;28;19968;-74
2023/12/20 10:06:45;;;;;;;;;;;17.90;99.90;;;;;;4953585;28;20013;-74
2023/12/20 10:09:12;;;;;;;;;;;17.90;99.90;;;;;;4952203;28;19961;-74
2023/12/20 10:11:39;;;;;;;;;;;17.90;99.90;;;;;;4957957;28;19922;-69
2023/12/20 10:14:07;;;;;;;;;;;17.90;99.90;;;;;;4969615;28;19921;-74
2023/12/20 10:16:34;;;;;;;;;;;17.80;99.90;;;;;;4972550;28;19914;-72
2023/12/20 10:19:04;;;;;;;;;;;17.90;99.90;;;;;;4972592;28;19921;-72
2023/12/20 10:21:30;;;;;;;;;;;17.90;99.90;;;;;;4971361;28;20324;-71
2023/12/20 10:23:58;;;;;;;;;;;17.80;99.90;;;;;;4971827;28;20318;-74
2023/12/20 10:26:25;;;;;;;;;;;17.90;99.90;;;;;;4971235;28;19999;-72
2023/12/20 10:28:55;;;;;;;;;;;17.90;99.90;;;;;;4972304;28;19918;-73
2023/12/20 10:31:34;;;;;;;;;;;18.00;99.90;;;;;;4971942;28;19914;-75
2023/12/20 10:34:02;;;;;;;;;;;17.90;99.90;;;;;;4958834;28;19918;-77
2023/12/20 10:36:30;;;;;;;;;;;18.00;99.90;;;;;;4972258;28;20317;-74
2023/12/20 10:38:58;;;;;;;;;;;18.00;99.90;;;;;;4969625;28;19960;-73
2023/12/20 10:41:25;;;;;;;;;;;18.00;99.90;;;;;;4965843;28;19922;-72
2023/12/20 10:43:52;;;;;;;;;;;18.00;99.90;;;;;;4962755;28;20017;-73
2023/12/20 10:46:20;;;;;;;;;;;18.00;99.90;;;;;;4970286;28;20027;-71
2023/12/20 10:48:48;;;;;;;;;;;18.00;99.90;;;;;;4971197;28;19910;-73
2023/12/20 10:51:19;;;;;;;;;;;17.90;99.90;;;;;;4969307;28;20013;-70
2023/12/20 10:53:48;;;;;;;;;;;18.00;99.90;;;;;;4966795;28;19910;-68
2023/12/20 10:56:17;;;;;;;;;;;18.00;99.90;;;;;;4989402;28;20402;-69
2023/12/20 10:58:46;;;;;;;;;;;18.00;99.90;;;;;;4985167;28;19918;-70
2023/12/20 11:01:20;;;;;;;;;;;18.10;99.90;;;;;;4969949;28;19914;-70
2023/12/20 11:03:51;;;;;;;;;;;18.00;99.90;;;;;;4953098;28;20363;-70
2023/12/20 11:06:21;;;;;;;;;;;18.00;99.90;;;;;;4971014;28;19949;-70
2023/12/20 11:08:54;;;;;;;;;;;18.00;99.90;;;;;;4971383;28;20354;-69
2023/12/20 11:11:24;;;;;;;;;;;18.10;99.90;;;;;;4963657;28;19936;-71
2023/12/20 11:14:02;;;;;;;;;;;18.00;99.90;;;;;;4970827;28;19923;-70
2023/12/20 11:16:29;;;;;;;;;;;18.10;99.90;;;;;;4972403;28;19922;-69
2023/12/20 11:18:56;;;;;;;;;;;18.00;99.90;;;;;;4977342;28;19914;-70
2023/12/20 11:21:25;;;;;;;;;;;18.00;99.90;;;;;;4965325;28;20769;-68
2023/12/20 11:23:52;;;;;;;;;;;18.10;99.90;;;;;;4973172;28;19928;-70
2023/12/20 11:26:23;;;;;;;;;;;18.10;99.90;;;;;;4971796;28;19998;-73
2023/12/20 11:28:50;;;;;;;;;;;18.10;99.90;;;;;;4962421;28;20375;-74
2023/12/20 11:31:17;;;;;;;;;;;18.10;99.90;;;;;;4965627;28;20689;-70
2023/12/20 11:33:48;;;;;;;;;;;18.10;99.90;;;;;;4964776;28;19918;-70
2023/12/20 11:36:15;;;;;;;;;;;18.10;99.90;;;;;;4961906;28;19917;-69
2023/12/20 11:38:57;;;;;;;;;;;18.10;99.90;;;;;;4964336;28;19918;-72
2023/12/20 11:41:25;;;;;;;;;;;18.00;99.90;;;;;;4963481;28;19994;-76
2023/12/20 11:43:56;;;;;;;;;;;18.00;99.90;;;;;;4960489;28;19922;-70
2023/12/20 11:46:23;;;;;;;;;;;18.10;99.90;;;;;;4961765;28;20376;-72
2023/12/20 11:48:50;;;;;;;;;;;18.10;99.90;;;;;;4964431;28;19948;-71
2023/12/20 11:51:17;;;;;;;;;;;18.10;99.90;;;;;;4962947;28;19975;-76
2023/12/20 11:53:44;;;;;;;;;;;18.10;99.90;;;;;;4960718;28;19933;-70
2023/12/20 11:56:10;;;;;;;;;;;18.10;99.90;;;;;;4969829;28;19919;-73
2023/12/20 11:58:38;;;;;;;;;;;18.10;99.90;;;;;;4968494;28;20327;-71
2023/12/20 12:01:07;;;;;;;;;;;18.10;99.90;;;;;;4963403;28;20423;-68
2023/12/20 12:03:34;;;;;;;;;;;18.10;99.90;;;;;;4965487;28;19914;-69
2023/12/20 12:06:02;;;;;;;;;;;18.10;99.90;;;;;;4958486;28;19926;-73
2023/12/20 12:08:29;;;;;;;;;;;18.10;99.90;;;;;;4966367;28;19974;-74
2023/12/20 12:10:55;;;;;;;;;;;18.20;99.90;;;;;;4966740;28;20363;-71
2023/12/20 12:13:22;;;;;;;;;;;18.10;99.90;;;;;;4964125;28;19925;-73
2023/12/20 12:15:50;;;;;;;;;;;18.10;99.90;;;;;;4961642;28;19925;-77
2023/12/20 12:18:17;;;;;;;;;;;18.10;99.90;;;;;;4961624;28;20007;-72
2023/12/20 12:20:44;;;;;;;;;;;18.10;99.90;;;;;;4963919;28;19921;-77
2023/12/20 12:23:10;;;;;;;;;;;18.20;99.90;;;;;;4979365;28;20017;-77
2023/12/20 12:25:37;;;;;;;;;;;18.10;99.90;;;;;;4966290;28;19926;-72
2023/12/20 12:28:04;;;;;;;;;;;18.10;99.90;;;;;;4961937;28;19937;-73
2023/12/20 12:30:31;;;;;;;;;;;18.10;99.90;;;;;;4983234;28;19922;-70
2023/12/20 12:32:57;;;;;;;;;;;18.20;99.90;;;;;;4962754;28;19926;-69
2023/12/20 12:35:24;;;;;;;;;;;18.20;99.90;;;;;;4962924;28;20359;-72
2023/12/20 12:37:51;;;;;;;;;;;18.10;99.90;;;;;;4960720;28;19992;-72
2023/12/20 12:40:19;;;;;;;;;;;18.20;99.90;;;;;;4965693;28;20000;-71
2023/12/20 12:42:47;;;;;;;;;;;18.10;99.90;;;;;;4964063;28;19975;-71
2023/12/20 12:45:14;;;;;;;;;;;18.10;99.90;;;;;;4965850;28;19925;-70
2023/12/20 12:47:41;;;;;;;;;;;18.20;99.90;;;;;;4956888;28;19922;-72
2023/12/20 12:50:08;;;;;;;;;;;18.20;99.90;;;;;;4963037;28;19964;-70
2023/12/20 12:52:35;;;;;;;;;;;18.20;99.90;;;;;;4963561;28;19926;-73
2023/12/20 12:55:03;;;;;;;;;;;18.30;99.90;;;;;;4965127;28;19921;-70
2023/12/20 12:57:29;;;;;;;;;;;18.30;99.90;;;;;;4962377;28;20379;-74
2023/12/20 12:59:58;;;;;;;;;;;18.30;99.90;;;;;;4965021;28;19914;-73
2023/12/20 13:02:25;;;;;;;;;;;18.30;99.90;;;;;;4966250;28;19915;-70
2023/12/20 13:04:51;;;;;;;;;;;18.30;99.90;;;;;;4958749;28;19918;-72
2023/12/20 13:07:18;;;;;;;;;;;18.30;99.90;;;;;;4960090;28;19977;-71
2023/12/20 13:09:45;;;;;;;;;;;18.30;99.90;;;;;;4959867;28;19917;-69
2023/12/20 13:12:11;;;;;;;;;;;18.30;99.90;;;;;;4971858;28;20334;-73
2023/12/20 13:14:40;;;;;;;;;;;18.30;99.90;;;;;;4963236;28;19914;-71
2023/12/20 13:17:07;;;;;;;;;;;18.30;99.90;;;;;;4960261;28;19928;-72
2023/12/20 13:19:34;;;;;;;;;;;18.20;99.90;;;;;;4964784;28;19914;-70
2023/12/20 13:22:00;;;;;;;;;;;18.10;99.90;;;;;;4964635;28;19925;-71
2023/12/20 13:24:27;;;;;;;;;;;18.10;99.90;;;;;;4961588;28;19972;-75
2023/12/20 13:26:54;;;;;;;;;;;18.10;99.90;;;;;;4959090;28;19934;-75
2023/12/20 13:29:20;;;;;;;;;;;18.10;99.90;;;;;;4972132;28;20264;-73
2023/12/20 13:31:47;;;;;;;;;;;18.10;99.90;;;;;;4972552;28;19930;-87
2023/12/20 13:34:16;;;;;;;;;;;18.20;99.90;;;;;;4967893;28;20351;-89
2023/12/20 13:36:45;;;;;;;;;;;18.10;99.90;;;;;;4979774;28;20290;-76
2023/12/20 13:39:12;;;;;;;;;;;18.10;99.90;;;;;;4967296;28;19921;-72
2023/12/20 13:41:39;;;;;;;;;;;18.20;99.90;;;;;;4965083;28;20382;-73
2023/12/20 13:44:06;;;;;;;;;;;18.10;99.90;;;;;;4962851;28;19914;-70
2023/12/20 13:46:32;;;;;;;;;;;18.20;99.90;;;;;;4963630;28;19921;-70
2023/12/20 13:48:59;;;;;;;;;;;18.20;99.90;;;;;;4962188;28;19910;-69
2023/12/20 13:51:26;;;;;;;;;;;18.20;99.90;;;;;;4975516;28;19964;-71
2023/12/20 13:53:52;;;;;;;;;;;18.10;99.90;;;;;;4962538;28;20359;-70
2023/12/20 13:56:20;;;;;;;;;;;18.10;99.90;;;;;;4962996;28;19910;-71
2023/12/20 13:58:46;;;;;;;;;;;18.20;99.90;;;;;;4963659;28;19911;-74
2023/12/20 14:01:13;;;;;;;;;;;18.20;99.90;;;;;;4979753;28;19914;-71
2023/12/20 14:03:41;;;;;;;;;;;18.30;99.90;;;;;;4969013;28;19914;-70
2023/12/20 14:06:07;;;;;;;;;;;18.20;99.90;;;;;;4961380;28;20385;-69
2023/12/20 14:08:35;;;;;;;;;;;18.20;99.90;;;;;;4968599;28;19910;-70
2023/12/20 14:11:02;;;;;;;;;;;18.20;99.90;;;;;;4965928;28;20371;-71
2023/12/20 14:13:29;;;;;;;;;;;18.10;99.90;;;;;;4963496;28;19919;-76
2023/12/20 14:16:00;;;;;;;;;;;18.10;99.90;;;;;;4952180;28;19990;-71